createdAt,value
2023-11-08T00:01:16.189Z,9.05
2023-11-08T00:04:20.463Z,9.38
2023-11-08T00:07:24.022Z,9.73
2023-11-08T00:10:27.450Z,9.63
2023-11-08T00:13:30.887Z,10.15
2023-11-08T00:16:34.352Z,10.27
2023-11-08T00:19:37.747Z,10.65
2023-11-08T00:22:44.309Z,9.60
2023-11-08T00:25:47.740Z,9.67
2023-11-08T00:28:51.106Z,9.63
2023-11-08T00:31:54.929Z,9.30
2023-11-08T00:34:58.459Z,8.93
2023-11-08T00:38:02.132Z,9.70
2023-11-08T00:41:05.930Z,10.43
2023-11-08T00:44:11.419Z,10.23
2023-11-08T00:47:15.956Z,9.75
2023-11-08T00:50:19.684Z,10.48
2023-11-08T00:53:23.638Z,9.57
2023-11-08T00:56:27.368Z,10.60
2023-11-08T00:59:30.859Z,10.98
2023-11-08T01:02:34.813Z,10.23
2023-11-08T01:05:38.422Z,9.88
2023-11-08T01:08:42.974Z,11.90
2023-11-08T01:11:46.407Z,10.40
2023-11-08T01:14:52.409Z,11.77
2023-11-08T01:17:57.181Z,12.07
2023-11-08T01:21:01.760Z,13.27
2023-11-08T01:24:05.723Z,12.67
2023-11-08T01:27:09.808Z,12.43
2023-11-08T01:30:13.745Z,11.88
2023-11-08T01:33:17.942Z,11.57
2023-11-08T01:36:21.561Z,12.60
2023-11-08T01:39:25.028Z,12.43
2023-11-08T01:42:28.462Z,11.77
2023-11-08T01:45:31.959Z,12.63
2023-11-08T01:48:35.815Z,12.35
2023-11-08T01:51:39.823Z,14.45
2023-11-08T01:54:49.501Z,12.07
2023-11-08T01:57:53.034Z,11.07
2023-11-08T02:00:56.867Z,10.80
2023-11-08T02:04:01.900Z,11.68
2023-11-08T02:07:05.333Z,10.68
2023-11-08T02:10:10.308Z,10.50
2023-11-08T02:13:13.869Z,10.33
2023-11-08T02:16:17.291Z,10.80
2023-11-08T02:19:20.747Z,11.20
2023-11-08T02:22:24.714Z,11.10
2023-11-08T02:25:36.895Z,10.20
2023-11-08T02:28:40.590Z,11.27
2023-11-08T02:31:51.838Z,10.63
2023-11-08T02:34:55.520Z,11.98
2023-11-08T02:37:58.898Z,11.30
2023-11-08T02:41:02.347Z,10.63
2023-11-08T02:44:05.981Z,9.73
2023-11-08T02:47:09.331Z,10.02
2023-11-08T02:50:13.728Z,10.07
2023-11-08T02:53:17.114Z,9.93
2023-11-08T02:56:20.525Z,9.63
2023-11-08T02:59:23.895Z,9.63
2023-11-08T03:02:27.327Z,9.82
2023-11-08T03:05:37.270Z,10.23
2023-11-08T03:08:43.972Z,8.93
2023-11-08T03:11:47.946Z,9.07
2023-11-08T03:14:54.034Z,9.63
2023-11-08T03:17:57.527Z,8.77
2023-11-08T03:21:00.920Z,9.40
2023-11-08T03:24:05.481Z,9.63
2023-11-08T03:27:12.200Z,8.53
2023-11-08T03:30:18.131Z,8.90
2023-11-08T03:33:21.919Z,7.90
2023-11-08T03:36:27.076Z,8.50
2023-11-08T03:39:30.545Z,7.40
2023-11-08T03:42:37.320Z,8.33
2023-11-08T03:45:40.865Z,8.27
2023-11-08T03:48:44.513Z,8.20
2023-11-08T03:51:47.935Z,7.93
2023-11-08T03:54:52.244Z,7.88
2023-11-08T03:58:07.951Z,7.47
2023-11-08T04:01:24.499Z,7.77
2023-11-08T04:04:28.218Z,7.32
2023-11-08T04:07:37.098Z,7.50
2023-11-08T04:10:40.555Z,6.82
2023-11-08T04:13:43.984Z,7.17
2023-11-08T04:16:47.344Z,6.90
2023-11-08T04:19:50.782Z,5.57
2023-11-08T04:22:54.143Z,5.50
2023-11-08T04:25:57.581Z,6.05
2023-11-08T04:29:01.081Z,6.00
2023-11-08T04:32:05.452Z,5.43
2023-11-08T04:35:09.676Z,7.10
2023-11-08T04:38:13.192Z,10.98
2023-11-08T04:41:17.187Z,17.73
2023-11-08T04:44:21.186Z,14.80
2023-11-08T04:47:26.335Z,10.30
2023-11-08T04:50:30.814Z,7.88
2023-11-08T04:53:34.332Z,6.63
2023-11-08T04:56:53.743Z,5.72
2023-11-08T05:00:05.956Z,5.67
2023-11-08T05:03:14.866Z,5.50
2023-11-08T05:06:19.137Z,7.35
2023-11-08T05:09:22.720Z,10.85
2023-11-08T05:12:27.418Z,17.73
2023-11-08T05:15:31.337Z,22.50
2023-11-08T05:18:34.871Z,17.57
2023-11-08T05:21:38.483Z,11.90
2023-11-08T05:24:42.007Z,7.43
2023-11-08T05:27:47.241Z,6.10
2023-11-08T05:30:50.752Z,6.80
2023-11-08T05:33:55.174Z,7.30
2023-11-08T05:37:03.453Z,7.03
2023-11-08T05:40:13.828Z,6.80
2023-11-08T05:43:24.392Z,5.78
2023-11-08T05:46:31.765Z,5.80
2023-11-08T05:49:35.107Z,5.40
2023-11-08T05:52:38.712Z,5.32
2023-11-08T05:55:44.847Z,4.68
2023-11-08T05:58:49.002Z,3.45
2023-11-08T06:02:15.013Z,3.00
2023-11-08T06:05:18.523Z,2.30
2023-11-08T06:08:21.880Z,2.35
2023-11-08T06:11:25.261Z,3.33
2023-11-08T06:14:31.987Z,3.53
2023-11-08T06:17:36.163Z,2.80
2023-11-08T06:20:43.927Z,3.30
2023-11-08T06:23:47.301Z,2.78
2023-11-08T06:26:51.582Z,3.50
2023-11-08T06:29:55.634Z,3.60
2023-11-08T06:32:59.682Z,3.40
2023-11-08T06:36:03.280Z,3.27
2023-11-08T06:39:06.684Z,3.88
2023-11-08T06:42:10.705Z,4.00
2023-11-08T06:45:14.819Z,3.72
2023-11-08T06:48:18.227Z,4.60
2023-11-08T06:51:22.573Z,3.93
2023-11-08T06:54:26.144Z,4.07
2023-11-08T06:57:29.568Z,3.85
2023-11-08T07:00:35.198Z,4.00
2023-11-08T07:03:39.185Z,3.90
2023-11-08T07:06:42.936Z,4.80
2023-11-08T07:09:49.001Z,4.53
2023-11-08T07:12:55.174Z,4.30
2023-11-08T07:16:00.679Z,4.40
2023-11-08T07:19:04.333Z,4.10
2023-11-08T07:22:08.365Z,3.60
2023-11-08T07:25:12.758Z,4.53
2023-11-08T07:28:16.473Z,3.80
2023-11-08T07:31:22.787Z,4.20
2023-11-08T07:34:29.973Z,4.30
2023-11-08T07:37:35.668Z,3.70
2023-11-08T07:40:44.550Z,3.45
2023-11-08T07:44:01.267Z,4.03
2023-11-08T07:47:04.790Z,3.90
2023-11-08T07:50:15.024Z,4.30
2023-11-08T07:53:44.474Z,4.60
2023-11-08T07:56:55.387Z,5.15
2023-11-08T07:59:58.954Z,5.38
2023-11-08T08:03:02.453Z,5.47
2023-11-08T08:06:06.168Z,5.10
2023-11-08T08:09:16.558Z,4.80
2023-11-08T08:12:20.110Z,5.10
2023-11-08T08:15:25.663Z,5.00
2023-11-08T08:18:29.402Z,4.78
2023-11-08T08:21:34.209Z,5.10
2023-11-08T08:25:02.965Z,5.90
2023-11-08T08:28:09.068Z,4.90
2023-11-08T08:31:13.106Z,4.50
2023-11-08T08:34:23.811Z,3.83
2023-11-08T08:37:34.774Z,4.03
2023-11-08T08:40:41.158Z,3.80
2023-11-08T08:43:44.519Z,3.70
2023-11-08T08:46:47.983Z,3.95
2023-11-08T08:49:56.640Z,4.63
2023-11-08T08:53:00.285Z,3.97
2023-11-08T08:56:03.840Z,4.63
2023-11-08T08:59:07.916Z,4.07
2023-11-08T09:02:11.949Z,4.43
2023-11-08T09:05:15.409Z,3.70
2023-11-08T09:08:18.974Z,3.53
2023-11-08T09:11:23.425Z,3.07
2023-11-08T09:14:35.723Z,2.33
2023-11-08T09:17:41.486Z,2.58
2023-11-08T09:20:48.487Z,2.00
2023-11-08T09:23:54.519Z,2.30
2023-11-08T09:26:57.912Z,1.63
2023-11-08T09:30:02.824Z,2.00
2023-11-08T09:33:08.092Z,2.80
2023-11-08T09:36:13.367Z,2.25
2023-11-08T09:39:17.559Z,2.10
2023-11-08T09:42:22.605Z,1.67
2023-11-08T09:45:32.384Z,2.10
2023-11-08T09:48:36.086Z,1.50
2023-11-08T09:51:39.856Z,2.03
2023-11-08T09:54:44.899Z,1.40
2023-11-08T09:57:52.754Z,3.23
2023-11-08T10:00:56.952Z,2.28
2023-11-08T10:04:01.708Z,1.38
2023-11-08T10:07:07.047Z,1.20
2023-11-08T10:10:10.921Z,0.97
2023-11-08T10:13:14.845Z,1.13
2023-11-08T10:16:18.802Z,1.77
2023-11-08T10:19:45.643Z,1.90
2023-11-08T10:22:51.500Z,1.10
2023-11-08T10:26:15.211Z,1.30
2023-11-08T10:29:20.514Z,1.60
2023-11-08T10:32:33.453Z,2.30
2023-11-08T10:35:40.896Z,2.47
2023-11-08T10:38:44.649Z,4.03
2023-11-08T10:41:51.294Z,4.53
2023-11-08T10:45:10.792Z,4.00
2023-11-08T10:48:14.515Z,5.50
2023-11-08T10:51:18.208Z,3.20
2023-11-08T10:54:21.692Z,2.80
2023-11-08T10:57:30.345Z,2.40
2023-11-08T11:00:36.349Z,2.90
2023-11-08T11:03:44.120Z,2.83
2023-11-08T11:06:49.966Z,4.90
2023-11-08T11:09:56.357Z,5.93
2023-11-08T11:13:04.086Z,5.40
2023-11-08T11:16:31.369Z,5.00
2023-11-08T11:19:43.007Z,5.10
2023-11-08T11:22:46.892Z,5.05
2023-11-08T11:25:51.746Z,5.25
2023-11-08T11:28:56.820Z,6.23
2023-11-08T11:32:08.543Z,6.50
2023-11-08T11:35:12.175Z,5.65
2023-11-08T11:38:18.246Z,6.38
2023-11-08T11:41:26.611Z,5.40
2023-11-08T11:44:50.769Z,5.83
2023-11-08T11:47:54.533Z,6.17
2023-11-08T11:51:03.296Z,5.28
2023-11-08T11:54:09.568Z,6.53
2023-11-08T11:57:13.051Z,5.47
2023-11-08T12:00:18.443Z,5.67
2023-11-08T12:03:23.060Z,5.23
2023-11-08T12:06:28.671Z,6.63
2023-11-08T12:09:36.682Z,6.07
2023-11-08T12:12:41.206Z,5.85
2023-11-08T12:15:44.772Z,5.60
2023-11-08T12:18:52.899Z,6.47
2023-11-08T12:21:56.887Z,5.75
2023-11-08T12:25:00.405Z,6.30
2023-11-08T12:28:04.142Z,6.95
2023-11-08T12:31:09.104Z,8.07
2023-11-08T12:34:16.419Z,6.67
2023-11-08T12:37:23.668Z,6.03
2023-11-08T12:40:28.675Z,6.03
2023-11-08T12:43:58.675Z,6.72
2023-11-08T12:47:08.294Z,6.47
2023-11-08T12:50:15.084Z,6.27
2023-11-08T12:53:18.566Z,7.38
2023-11-08T12:56:22.023Z,6.63
2023-11-08T12:59:25.475Z,4.78
2023-11-08T13:02:29.011Z,4.73
2023-11-08T13:05:32.663Z,4.10
2023-11-08T13:08:40.305Z,4.10
2023-11-08T13:11:43.998Z,3.65
2023-11-08T13:14:49.432Z,3.75
2023-11-08T13:17:52.913Z,4.33
2023-11-08T13:20:56.313Z,4.67
2023-11-08T13:24:05.385Z,4.47
2023-11-08T13:27:11.037Z,4.95
2023-11-08T13:30:14.585Z,5.47
2023-11-08T13:33:18.062Z,5.60
2023-11-08T13:36:27.462Z,5.17
2023-11-08T13:39:31.431Z,5.13
2023-11-08T13:42:40.768Z,4.40
2023-11-08T13:45:48.071Z,4.40
2023-11-08T13:48:52.164Z,4.53
2023-11-08T13:52:02.030Z,5.03
2023-11-08T13:55:09.049Z,5.13
2023-11-08T13:58:19.229Z,4.10
2023-11-08T14:01:34.606Z,4.68
2023-11-08T14:04:41.117Z,5.40
2023-11-08T14:07:44.711Z,4.00
2023-11-08T14:10:48.108Z,4.00
2023-11-08T14:13:54.595Z,4.00
2023-11-08T14:16:58.062Z,3.78
2023-11-08T14:20:02.311Z,4.37
2023-11-08T14:23:08.033Z,4.37
2023-11-08T14:26:13.693Z,4.10
2023-11-08T14:29:24.780Z,4.18
2023-11-08T14:32:34.583Z,4.55
2023-11-08T14:35:38.136Z,5.30
2023-11-08T14:38:41.576Z,5.93
2023-11-08T14:41:45.040Z,6.20
2023-11-08T14:44:49.053Z,5.10
2023-11-08T14:47:52.753Z,7.22
2023-11-08T14:50:56.532Z,5.30
2023-11-08T14:54:00.238Z,4.70
2023-11-08T14:57:03.929Z,5.45
2023-11-08T15:00:08.287Z,6.85
2023-11-08T15:03:11.911Z,6.20
2023-11-08T15:06:16.369Z,7.07
2023-11-08T15:09:52.909Z,8.60
2023-11-08T15:12:44.229Z,9.13
2023-11-08T15:15:47.845Z,7.53
2023-11-08T15:18:51.413Z,7.57
2023-11-08T15:21:55.016Z,7.57
2023-11-08T15:24:58.476Z,7.47
2023-11-08T15:28:01.961Z,7.63
2023-11-08T15:31:05.618Z,7.00
2023-11-08T15:34:09.193Z,9.55
2023-11-08T15:37:12.749Z,7.33
2023-11-08T15:40:16.418Z,6.23
2023-11-08T15:43:25.003Z,7.03
2023-11-08T15:46:29.227Z,9.13
2023-11-08T15:49:34.309Z,8.50
2023-11-08T15:52:38.036Z,10.00
2023-11-08T15:55:41.506Z,8.57
2023-11-08T15:58:44.973Z,7.55
2023-11-08T16:01:49.713Z,7.68
2023-11-08T16:04:53.631Z,8.55
2023-11-08T16:07:58.812Z,8.67
2023-11-08T16:11:05.320Z,9.10
2023-11-08T16:14:09.082Z,9.68
2023-11-08T16:17:13.070Z,9.30
2023-11-08T16:20:17.009Z,19.52
2023-11-08T16:23:23.741Z,7.07
2023-11-08T16:26:27.174Z,7.47
2023-11-08T16:29:51.027Z,8.70
2023-11-08T16:32:54.340Z,8.00
2023-11-08T16:35:59.367Z,7.65
2023-11-08T16:39:04.478Z,8.23
2023-11-08T16:42:09.489Z,7.90
2023-11-08T16:45:13.486Z,8.40
2023-11-08T16:48:18.091Z,8.27
2023-11-08T16:51:22.230Z,8.82
2023-11-08T16:54:25.761Z,11.37
2023-11-08T16:57:29.130Z,11.80
2023-11-08T17:00:36.923Z,10.68
2023-11-08T17:03:42.194Z,10.60
2023-11-08T17:06:45.703Z,9.88
2023-11-08T17:09:49.379Z,10.63
2023-11-08T17:12:53.021Z,9.80
2023-11-08T17:15:56.625Z,9.55
2023-11-08T17:19:01.219Z,10.13
2023-11-08T17:22:05.780Z,11.00
2023-11-08T17:25:10.984Z,10.57
2023-11-08T17:28:14.763Z,9.20
2023-11-08T17:31:18.506Z,18.10
2023-11-08T17:34:23.037Z,15.32
2023-11-08T17:37:26.922Z,25.85
2023-11-08T17:40:31.632Z,22.93
2023-11-08T17:43:35.265Z,24.77
2023-11-08T17:46:38.856Z,27.60
2023-11-08T17:49:42.421Z,17.73
2023-11-08T17:52:47.052Z,8.70
2023-11-08T17:55:52.237Z,7.07
2023-11-08T17:58:56.602Z,8.20
2023-11-08T18:02:00.089Z,3.92
2023-11-08T18:05:04.546Z,5.50
2023-11-08T18:08:08.213Z,3.80
2023-11-08T18:11:21.798Z,3.40
2023-11-08T18:14:26.012Z,3.03
2023-11-08T18:17:31.801Z,2.78
2023-11-08T18:20:37.061Z,2.97
2023-11-08T18:23:40.615Z,3.03
2023-11-08T18:26:44.352Z,1.53
2023-11-08T18:29:48.055Z,2.20
2023-11-08T18:32:51.421Z,2.63
2023-11-08T18:35:54.973Z,1.50
2023-11-08T18:38:58.644Z,1.48
2023-11-08T18:42:02.096Z,2.50
2023-11-08T18:45:06.239Z,4.40
2023-11-08T18:48:09.681Z,9.75
2023-11-08T18:51:13.387Z,3.72
2023-11-08T18:54:16.932Z,4.93
2023-11-08T18:57:20.352Z,4.07
2023-11-08T19:00:24.378Z,6.63
2023-11-08T19:03:29.361Z,9.38
2023-11-08T19:06:33.183Z,4.80
2023-11-08T19:09:36.603Z,5.22
2023-11-08T19:12:41.673Z,5.13
2023-11-08T19:15:45.403Z,6.10
2023-11-08T19:18:48.969Z,8.32
2023-11-08T19:21:52.485Z,8.57
2023-11-08T19:24:56.109Z,17.70
2023-11-08T19:27:59.566Z,19.70
2023-11-08T19:31:03.135Z,30.40
2023-11-08T19:34:07.302Z,32.83
2023-11-08T19:37:11.778Z,26.75
2023-11-08T19:40:15.239Z,24.83
2023-11-08T19:43:19.008Z,23.17
2023-11-08T19:46:23.793Z,22.23
2023-11-08T19:49:27.593Z,23.00
2023-11-08T19:52:31.236Z,20.35
2023-11-08T19:55:34.948Z,16.30
2023-11-08T19:58:39.032Z,19.97
2023-11-08T20:01:42.782Z,19.17
2023-11-08T20:04:46.886Z,16.98
2023-11-08T20:07:51.983Z,22.60
2023-11-08T20:10:56.912Z,15.93
2023-11-08T20:14:01.992Z,14.90
2023-11-08T20:17:07.047Z,17.03
2023-11-08T20:20:11.761Z,16.27
2023-11-08T20:23:15.172Z,18.15
2023-11-08T20:26:19.150Z,16.58
2023-11-08T20:29:22.879Z,13.43
2023-11-08T20:32:29.687Z,11.53
2023-11-08T20:35:33.447Z,11.70
2023-11-08T20:38:39.422Z,16.25
2023-11-08T20:41:49.282Z,25.13
2023-11-08T20:44:53.420Z,19.10
2023-11-08T20:47:58.219Z,14.90
2023-11-08T20:51:02.180Z,16.15
2023-11-08T20:54:05.990Z,24.08
2023-11-08T20:57:12.345Z,21.45
2023-11-08T21:00:16.901Z,14.03
2023-11-08T21:03:22.734Z,8.47
2023-11-08T21:06:26.250Z,8.65
2023-11-08T21:09:29.828Z,9.80
2023-11-08T21:12:33.262Z,10.25
2023-11-08T21:15:36.880Z,10.73
2023-11-08T21:18:41.355Z,11.77
2023-11-08T21:21:45.111Z,11.20
2023-11-08T21:24:48.524Z,7.95
2023-11-08T21:27:53.891Z,4.65
2023-11-08T21:30:57.541Z,3.90
2023-11-08T21:34:01.339Z,6.23
2023-11-08T21:37:05.194Z,7.95
2023-11-08T21:40:10.371Z,6.90
2023-11-08T21:43:14.439Z,5.53
2023-11-08T21:46:17.979Z,4.63
2023-11-08T21:49:21.603Z,5.83
2023-11-08T21:52:25.132Z,6.05
2023-11-08T21:55:28.613Z,6.20
2023-11-08T21:58:32.000Z,6.40
2023-11-08T22:01:35.508Z,6.23
2023-11-08T22:04:38.984Z,6.70
2023-11-08T22:07:43.248Z,6.93
2023-11-08T22:10:47.180Z,6.68
2023-11-08T22:13:50.609Z,7.20
2023-11-08T22:16:53.999Z,6.40
2023-11-08T22:19:57.399Z,6.17
2023-11-08T22:23:00.781Z,6.18
2023-11-08T22:26:05.482Z,6.43
2023-11-08T22:29:09.411Z,5.78
2023-11-08T22:32:12.875Z,5.73
2023-11-08T22:35:16.290Z,5.77
2023-11-08T22:38:19.711Z,5.38
2023-11-08T22:41:23.404Z,5.88
2023-11-08T22:44:26.824Z,5.55
2023-11-08T22:47:30.327Z,5.80
2023-11-08T22:50:34.364Z,5.83
2023-11-08T22:53:37.736Z,7.28
2023-11-08T22:56:41.140Z,6.82
2023-11-08T22:59:45.422Z,7.75
2023-11-08T23:02:49.963Z,8.63
2023-11-08T23:05:54.924Z,9.00
2023-11-08T23:09:01.919Z,8.27
2023-11-08T23:12:05.719Z,7.35
2023-11-08T23:15:12.244Z,6.90
2023-11-08T23:18:16.116Z,6.93
2023-11-08T23:21:21.073Z,6.03
2023-11-08T23:24:24.464Z,5.80
2023-11-08T23:27:31.046Z,6.25
2023-11-08T23:30:34.568Z,5.88
2023-11-08T23:33:38.058Z,6.30
2023-11-08T23:36:41.495Z,5.78
2023-11-08T23:39:44.896Z,6.57
2023-11-08T23:42:49.371Z,6.93
2023-11-08T23:45:52.817Z,7.10
2023-11-08T23:48:56.840Z,6.80
2023-11-08T23:52:00.370Z,6.43
2023-11-08T23:55:05.318Z,6.43
2023-11-08T23:58:10.698Z,6.38
